createdAt,value
2019-03-06T00:04:02.244Z,3.90
2019-03-06T00:09:07.059Z,4.43
2019-03-06T00:14:09.782Z,3.97
2019-03-06T00:19:12.512Z,4.20
2019-03-06T00:24:15.237Z,4.73
2019-03-06T00:29:18.009Z,4.20
2019-03-06T00:34:20.724Z,4.47
2019-03-06T00:39:24.595Z,4.27
2019-03-06T00:44:27.303Z,3.87
2019-03-06T00:49:30.038Z,3.33
2019-03-06T00:54:32.776Z,3.97
2019-03-06T00:59:35.514Z,3.47
2019-03-06T01:04:38.426Z,3.20
2019-03-06T01:09:41.143Z,3.20
2019-03-06T01:14:44.061Z,3.47
2019-03-06T01:19:46.771Z,3.60
2019-03-06T01:24:49.520Z,3.13
2019-03-06T01:29:52.689Z,3.83
2019-03-06T01:35:15.052Z,3.10
2019-03-06T01:40:29.652Z,3.67
2019-03-06T01:45:32.368Z,2.97
2019-03-06T01:50:35.090Z,3.70
2019-03-06T01:55:37.828Z,3.27
2019-03-06T02:00:40.849Z,3.13
2019-03-06T02:05:43.615Z,3.20
2019-03-06T02:10:46.537Z,3.43
2019-03-06T04:02:10.110Z,3.77
2019-03-06T04:07:12.832Z,3.50
2019-03-06T04:12:15.857Z,3.73
2019-03-06T04:17:18.537Z,3.13
2019-03-06T04:22:21.233Z,3.87
2019-03-06T04:27:23.966Z,3.97
2019-03-06T04:32:26.671Z,3.73
2019-03-06T04:37:29.412Z,3.63
2019-03-06T04:42:32.100Z,3.70
2019-03-06T04:47:34.788Z,4.20
2019-03-06T04:52:37.520Z,4.17
2019-03-06T04:57:40.256Z,5.37
2019-03-06T05:02:42.931Z,4.80
2019-03-06T05:07:45.635Z,4.30
2019-03-06T05:12:48.320Z,4.67
2019-03-06T05:18:10.966Z,4.40
2019-03-06T05:23:13.640Z,4.33
2019-03-06T05:28:16.339Z,4.70
2019-03-06T05:33:19.125Z,5.07
2019-03-06T05:38:34.269Z,4.60
2019-03-06T05:43:36.967Z,4.83
2019-03-06T05:48:39.648Z,4.40
2019-03-06T05:53:42.349Z,5.23
2019-03-06T05:58:45.057Z,5.20
2019-03-06T06:03:47.769Z,5.70
2019-03-06T06:08:50.461Z,6.57
2019-03-06T06:13:53.155Z,6.00
2019-03-06T06:18:57.000Z,5.47
2019-03-06T06:24:03.232Z,5.93
2019-03-06T06:29:05.926Z,5.97
2019-03-06T06:34:08.664Z,6.47
2019-03-06T06:39:11.374Z,6.97
2019-03-06T06:44:14.064Z,7.27
2019-03-06T06:49:16.955Z,7.20
2019-03-06T06:54:36.629Z,7.10
2019-03-06T07:00:27.697Z,7.70
2019-03-06T07:05:47.808Z,7.53
2019-03-06T07:11:24.945Z,8.17
2019-03-06T07:16:52.869Z,10.37
2019-03-06T07:22:04.544Z,9.70
2019-03-06T07:27:26.869Z,9.30
2019-03-06T07:32:40.474Z,9.37
2019-03-06T07:38:01.272Z,10.07
2019-03-06T07:43:11.746Z,9.80
2019-03-06T07:48:36.767Z,10.30
2019-03-06T07:54:10.951Z,10.63
2019-03-06T07:59:13.716Z,10.67
2019-03-06T08:04:17.103Z,10.30
2019-03-06T08:09:20.319Z,10.93
2019-03-06T08:14:42.460Z,10.40
2019-03-06T08:20:07.615Z,10.00
2019-03-06T08:25:25.248Z,10.60
2019-03-06T08:30:29.862Z,10.67
2019-03-06T08:35:32.576Z,10.50
2019-03-06T08:40:35.300Z,10.33
2019-03-06T08:45:52.392Z,9.97
2019-03-06T08:51:01.143Z,9.90
2019-03-06T08:56:24.020Z,10.43
2019-03-06T09:01:46.675Z,9.40
2019-03-06T09:07:10.816Z,8.70
2019-03-06T09:12:28.774Z,8.80
2019-03-06T09:17:38.740Z,8.50
2019-03-06T09:23:01.081Z,9.00
2019-03-06T09:28:11.851Z,7.77
2019-03-06T09:33:20.178Z,7.53
2019-03-06T09:38:57.377Z,7.93
2019-03-06T09:44:18.955Z,6.67
2019-03-06T09:49:30.940Z,6.50
2019-03-06T09:54:52.473Z,6.83
2019-03-06T10:00:23.509Z,5.77
2019-03-06T10:05:41.393Z,6.10
2019-03-06T10:10:58.760Z,5.93
2019-03-06T10:16:15.654Z,5.30
2019-03-06T10:21:18.364Z,4.97
2019-03-06T10:26:21.064Z,5.00
2019-03-06T10:31:23.795Z,4.03
2019-03-06T10:36:26.603Z,4.23
2019-03-06T10:41:29.424Z,5.20
2019-03-06T10:46:32.209Z,4.00
2019-03-06T10:51:34.909Z,3.37
2019-03-06T10:56:37.700Z,2.80
2019-03-06T11:01:40.613Z,3.10
2019-03-06T11:06:43.419Z,3.30
2019-03-06T11:11:46.218Z,2.80
2019-03-06T11:16:48.988Z,2.13
2019-03-06T11:21:52.009Z,2.63
2019-03-06T11:26:55.015Z,2.50
2019-03-06T11:31:57.732Z,2.77
2019-03-06T11:37:00.778Z,2.33
2019-03-06T11:42:04.326Z,2.73
2019-03-06T11:47:07.129Z,2.50
2019-03-06T11:52:10.035Z,3.07
2019-03-06T11:57:13.168Z,2.50
2019-03-06T12:02:16.967Z,2.40
2019-03-06T12:07:20.200Z,2.40
2019-03-06T12:12:23.042Z,2.67
2019-03-06T12:17:25.917Z,2.07
2019-03-06T12:22:28.857Z,2.60
2019-03-06T12:27:31.812Z,2.33
2019-03-06T12:32:36.657Z,2.67
2019-03-06T12:37:46.732Z,2.60
2019-03-06T12:42:44.283Z,2.33
2019-03-06T12:47:55.487Z,2.47
2019-03-06T12:52:53.325Z,2.27
2019-03-06T12:57:59.421Z,1.80
2019-03-06T13:03:01.568Z,1.73
2019-03-06T13:08:04.264Z,2.27
2019-03-06T13:13:06.994Z,1.80
2019-03-06T13:18:09.839Z,2.00
2019-03-06T13:23:13.432Z,2.27
2019-03-06T13:28:16.187Z,2.53
2019-03-06T13:33:29.514Z,1.70
2019-03-06T13:38:32.274Z,1.60
2019-03-06T13:43:34.968Z,1.83
2019-03-06T13:48:37.760Z,1.67
2019-03-06T13:53:40.661Z,2.20
2019-03-06T13:58:43.664Z,1.97
2019-03-06T14:03:46.439Z,1.60
2019-03-06T14:08:49.259Z,1.90
2019-03-06T14:13:52.068Z,1.77
2019-03-06T14:24:11.543Z,1.60
2019-03-06T14:29:14.439Z,1.40
2019-03-06T14:34:17.171Z,1.50
2019-03-06T14:39:26.643Z,1.57
2019-03-06T14:44:29.452Z,1.87
2019-03-06T14:49:32.184Z,1.90
2019-03-06T14:54:34.991Z,2.00
2019-03-06T14:59:37.774Z,1.50
2019-03-06T15:04:40.467Z,1.90
2019-03-06T15:09:43.170Z,1.77
2019-03-06T15:14:45.863Z,1.10
2019-03-06T15:19:48.594Z,1.77
2019-03-06T15:24:51.337Z,1.13
2019-03-06T15:29:54.331Z,1.30
2019-03-06T15:34:57.043Z,1.63
2019-03-06T15:39:59.869Z,1.40
2019-03-06T15:45:02.671Z,1.13
2019-03-06T15:50:09.278Z,1.70
2019-03-06T15:55:12.405Z,1.63
2019-03-06T16:00:27.632Z,1.70
2019-03-06T16:05:30.756Z,1.23
2019-03-06T16:10:33.557Z,1.67
2019-03-06T16:15:36.673Z,1.90
2019-03-06T16:20:39.571Z,1.57
2019-03-06T16:25:42.431Z,1.60
2019-03-06T16:30:45.144Z,1.23
2019-03-06T16:35:48.026Z,1.30
2019-03-06T16:40:50.981Z,1.43
2019-03-06T16:45:54.255Z,1.43
2019-03-06T16:50:56.955Z,1.73
2019-03-06T16:55:59.694Z,1.57
2019-03-06T17:01:03.019Z,1.30
2019-03-06T17:06:06.022Z,1.43
2019-03-06T17:11:10.980Z,1.47
2019-03-06T17:16:14.218Z,1.70
2019-03-06T17:21:17.006Z,1.47
2019-03-06T17:26:20.723Z,1.30
2019-03-06T17:31:23.606Z,1.50
2019-03-06T17:36:26.332Z,1.47
2019-03-06T17:41:29.164Z,1.23
2019-03-06T17:46:32.002Z,1.17
2019-03-06T17:51:34.773Z,1.20
2019-03-06T17:56:37.491Z,1.30
2019-03-06T18:01:40.189Z,1.00
2019-03-06T18:06:43.087Z,0.97
2019-03-06T18:11:46.155Z,1.00
2019-03-06T18:16:48.972Z,1.20
2019-03-06T18:21:51.948Z,0.90
2019-03-06T18:26:54.788Z,1.70
2019-03-06T18:31:57.589Z,1.03
2019-03-06T18:37:00.337Z,1.43
2019-03-06T18:42:03.550Z,0.90
2019-03-06T18:47:06.247Z,1.10
2019-03-06T18:52:08.950Z,1.20
2019-03-06T18:57:13.308Z,0.97
2019-03-06T19:02:16.343Z,1.00
2019-03-06T19:07:19.060Z,1.23
2019-03-06T19:12:21.809Z,0.90
2019-03-06T19:17:24.562Z,1.17
2019-03-06T19:22:27.335Z,1.10
2019-03-06T19:27:30.210Z,1.20
2019-03-06T19:32:32.917Z,1.47
2019-03-06T19:37:35.629Z,1.00
2019-03-06T19:42:38.337Z,1.10
2019-03-06T19:47:41.086Z,1.73
2019-03-06T19:52:43.923Z,1.10
2019-03-06T19:57:58.493Z,1.90
2019-03-06T20:03:01.620Z,1.40
2019-03-06T20:08:08.278Z,1.00
2019-03-06T20:13:11.417Z,0.97
2019-03-06T20:18:14.121Z,1.40
2019-03-06T20:23:17.120Z,1.40
2019-03-06T20:28:19.923Z,1.30
2019-03-06T20:33:22.752Z,1.67
2019-03-06T20:38:25.506Z,1.43
2019-03-06T20:43:28.222Z,1.20
2019-03-06T20:48:30.960Z,1.30
2019-03-06T20:53:33.709Z,1.40
2019-03-06T20:58:36.448Z,1.20
2019-03-06T21:03:39.199Z,1.00
2019-03-06T21:08:42.774Z,0.90
2019-03-06T21:13:45.519Z,1.23
2019-03-06T21:18:51.620Z,1.20
2019-03-06T21:23:57.061Z,1.30
2019-03-06T21:28:59.919Z,1.07
2019-03-06T21:34:02.740Z,1.20
2019-03-06T21:39:20.555Z,1.33
2019-03-06T21:44:23.363Z,1.40
2019-03-06T21:49:26.343Z,1.30
2019-03-06T21:54:29.340Z,1.10
2019-03-06T21:59:32.175Z,1.30
2019-03-06T22:04:34.990Z,1.37
2019-03-06T22:09:37.727Z,1.30
2019-03-06T22:14:40.471Z,1.60
2019-03-06T22:19:43.191Z,1.20
2019-03-06T22:24:45.907Z,1.30
2019-03-06T22:29:48.737Z,1.30
2019-03-06T22:34:52.205Z,1.60
2019-03-06T22:39:55.605Z,1.30
2019-03-06T22:44:58.519Z,1.60
2019-03-06T22:50:01.331Z,1.50
2019-03-06T22:55:04.672Z,2.13
2019-03-06T23:00:22.209Z,1.37
2019-03-06T23:05:26.065Z,1.63
2019-03-06T23:10:28.791Z,1.80
2019-03-06T23:15:31.625Z,1.77
2019-03-06T23:20:34.660Z,1.93
2019-03-06T23:25:37.400Z,1.60
2019-03-06T23:30:40.271Z,2.00
2019-03-06T23:35:42.992Z,1.83
2019-03-06T23:40:45.821Z,1.80
2019-03-06T23:45:48.525Z,2.10
2019-03-06T23:50:51.259Z,2.17
2019-03-06T23:55:53.969Z,2.23
